sensor_id;sensor_type;location;lat;lon;timestamp;pressure;altitude;pressure_sealevel;temperature;humidity
63439;BME280;49567;48.958;8.294;2023-05-20T00:00:28;100509.50;;;16.37;60.62
63439;BME280;49567;48.958;8.294;2023-05-20T00:02:53;100512.78;;;16.39;60.59
63439;BME280;49567;48.958;8.294;2023-05-20T00:05:18;100506.50;;;16.39;60.49
63439;BME280;49567;48.958;8.294;2023-05-20T00:07:43;100502.66;;;16.40;60.53
63439;BME280;49567;48.958;8.294;2023-05-20T00:10:09;100510.59;;;16.36;60.59
63439;BME280;49567;48.958;8.294;2023-05-20T00:12:36;100503.50;;;16.35;60.57
63439;BME280;49567;48.958;8.294;2023-05-20T00:15:02;100500.75;;;16.35;60.65
63439;BME280;49567;48.958;8.294;2023-05-20T00:17:27;100497.19;;;16.35;60.49
63439;BME280;49567;48.958;8.294;2023-05-20T00:19:53;100501.28;;;16.37;60.29
63439;BME280;49567;48.958;8.294;2023-05-20T00:22:19;100498.53;;;16.42;60.13
63439;BME280;49567;48.958;8.294;2023-05-20T00:24:44;100498.25;;;16.44;59.85
63439;BME280;49567;48.958;8.294;2023-05-20T00:27:09;100502.34;;;16.46;59.78
63439;BME280;49567;48.958;8.294;2023-05-20T00:29:34;100502.63;;;16.45;59.78
63439;BME280;49567;48.958;8.294;2023-05-20T00:32:00;100496.31;;;16.44;59.71
63439;BME280;49567;48.958;8.294;2023-05-20T00:34:25;100503.44;;;16.45;59.81
63439;BME280;49567;48.958;8.294;2023-05-20T00:36:50;100500.72;;;16.45;59.85
63439;BME280;49567;48.958;8.294;2023-05-20T00:39:16;100496.88;;;16.46;59.77
63439;BME280;49567;48.958;8.294;2023-05-20T00:41:41;100493.03;;;16.47;59.67
63439;BME280;49567;48.958;8.294;2023-05-20T00:44:06;100493.56;;;16.49;59.12
63439;BME280;49567;48.958;8.294;2023-05-20T00:46:32;100494.38;;;16.50;58.50
63439;BME280;49567;48.958;8.294;2023-05-20T00:48:57;100494.91;;;16.52;57.89
63439;BME280;49567;48.958;8.294;2023-05-20T00:51:23;100493.00;;;16.52;57.52
63439;BME280;49567;48.958;8.294;2023-05-20T00:53:49;100499.31;;;16.53;56.92
63439;BME280;49567;48.958;8.294;2023-05-20T00:56:15;100491.34;;;16.56;56.58
63439;BME280;49567;48.958;8.294;2023-05-20T00:58:40;100494.91;;;16.57;56.19
63439;BME280;49567;48.958;8.294;2023-05-20T01:01:05;100494.63;;;16.58;56.14
63439;BME280;49567;48.958;8.294;2023-05-20T01:03:31;100496.50;;;16.63;55.94
63439;BME280;49567;48.958;8.294;2023-05-20T01:05:57;100497.31;;;16.64;55.56
63439;BME280;49567;48.958;8.294;2023-05-20T01:08:23;100495.16;;;16.60;55.74
63439;BME280;49567;48.958;8.294;2023-05-20T01:11:08;100492.41;;;16.60;55.59
63439;BME280;49567;48.958;8.294;2023-05-20T01:13:42;100490.25;;;16.63;55.30
63439;BME280;49567;48.958;8.294;2023-05-20T01:16:10;100490.50;;;16.61;55.40
63439;BME280;49567;48.958;8.294;2023-05-20T01:18:38;100489.41;;;16.62;55.45
63439;BME280;49567;48.958;8.294;2023-05-20T01:21:04;100500.06;;;16.64;55.58
63439;BME280;49567;48.958;8.294;2023-05-20T01:23:39;100494.84;;;16.67;55.42
63439;BME280;49567;48.958;8.294;2023-05-20T01:26:04;100492.69;;;16.64;55.54
63439;BME280;49567;48.958;8.294;2023-05-20T01:28:33;100496.47;;;16.68;55.45
63439;BME280;49567;48.958;8.294;2023-05-20T01:31:01;100495.66;;;16.68;55.57
63439;BME280;49567;48.958;8.294;2023-05-20T01:33:30;100491.28;;;16.67;55.52
63439;BME280;49567;48.958;8.294;2023-05-20T01:35:59;100489.38;;;16.67;55.51
63439;BME280;49567;48.958;8.294;2023-05-20T01:38:24;100487.97;;;16.70;55.49
63439;BME280;49567;48.958;8.294;2023-05-20T01:40:52;100496.75;;;16.72;55.49
63439;BME280;49567;48.958;8.294;2023-05-20T01:43:18;100494.00;;;16.72;55.50
63439;BME280;49567;48.958;8.294;2023-05-20T01:45:44;100493.69;;;16.73;55.64
63439;BME280;49567;48.958;8.294;2023-05-20T01:48:10;100492.91;;;16.73;55.76
63439;BME280;49567;48.958;8.294;2023-05-20T01:50:36;100483.31;;;16.70;55.69
63439;BME280;49567;48.958;8.294;2023-05-20T01:53:02;100479.25;;;16.68;55.86
63439;BME280;49567;48.958;8.294;2023-05-20T01:55:27;100475.16;;;16.65;55.95
63439;BME280;49567;48.958;8.294;2023-05-20T01:57:52;100482.56;;;16.65;56.07
63439;BME280;49567;48.958;8.294;2023-05-20T02:00:18;100478.16;;;16.64;56.15
63439;BME280;49567;48.958;8.294;2023-05-20T02:02:43;100476.25;;;16.64;56.13
63439;BME280;49567;48.958;8.294;2023-05-20T02:05:09;100473.53;;;16.64;55.95
63439;BME280;49567;48.958;8.294;2023-05-20T02:07:34;100480.34;;;16.67;56.07
63439;BME280;49567;48.958;8.294;2023-05-20T02:09:59;100476.00;;;16.66;56.05
63439;BME280;49567;48.958;8.294;2023-05-20T02:12:25;100474.91;;;16.62;56.13
63439;BME280;49567;48.958;8.294;2023-05-20T02:14:50;100462.06;;;16.62;56.10
63439;BME280;49567;48.958;8.294;2023-05-20T02:17:16;100459.31;;;16.62;55.96
63439;BME280;49567;48.958;8.294;2023-05-20T02:19:42;100467.53;;;16.62;56.11
63439;BME280;49567;48.958;8.294;2023-05-20T02:22:07;100460.47;;;16.56;56.21
63439;BME280;49567;48.958;8.294;2023-05-20T02:24:33;100457.72;;;16.56;56.58
63439;BME280;49567;48.958;8.294;2023-05-20T02:26:58;100451.44;;;16.55;56.18
63439;BME280;49567;48.958;8.294;2023-05-20T02:29:24;100448.69;;;16.55;56.14
63439;BME280;49567;48.958;8.294;2023-05-20T02:31:50;100448.94;;;16.54;56.30
63439;BME280;49567;48.958;8.294;2023-05-20T02:34:16;100445.94;;;16.50;56.28
63439;BME280;49567;48.958;8.294;2023-05-20T02:36:42;100448.16;;;16.48;56.33
63439;BME280;49567;48.958;8.294;2023-05-20T02:39:07;100444.91;;;16.46;56.43
63439;BME280;49567;48.958;8.294;2023-05-20T02:41:32;100439.97;;;16.43;56.45
63439;BME280;49567;48.958;8.294;2023-05-20T02:43:58;100440.22;;;16.47;56.26
63439;BME280;49567;48.958;8.294;2023-05-20T02:46:23;100440.22;;;16.47;56.38
63439;BME280;49567;48.958;8.294;2023-05-20T02:48:48;100433.97;;;16.46;56.19
63439;BME280;49567;48.958;8.294;2023-05-20T02:51:13;100433.16;;;16.46;56.15
63439;BME280;49567;48.958;8.294;2023-05-20T02:53:39;100442.44;;;16.45;56.41
63439;BME280;49567;48.958;8.294;2023-05-20T02:56:05;100435.63;;;16.42;56.58
63439;BME280;49567;48.958;8.294;2023-05-20T02:58:30;100442.19;;;16.41;56.46
63439;BME280;49567;48.958;8.294;2023-05-20T03:00:55;100444.41;;;16.39;56.63
63439;BME280;49567;48.958;8.294;2023-05-20T03:03:23;100452.63;;;16.34;56.89
63439;BME280;49567;48.958;8.294;2023-05-20T03:05:49;100440.84;;;16.34;56.88
63439;BME280;49567;48.958;8.294;2023-05-20T03:08:15;100447.72;;;16.31;56.95
63439;BME280;49567;48.958;8.294;2023-05-20T03:10:40;100446.38;;;16.29;57.21
63439;BME280;49567;48.958;8.294;2023-05-20T03:13:07;100451.06;;;16.23;57.19
63439;BME280;49567;48.958;8.294;2023-05-20T03:15:33;100449.69;;;16.21;57.22
63439;BME280;49567;48.958;8.294;2023-05-20T03:18:00;100449.94;;;16.24;56.95
63439;BME280;49567;48.958;8.294;2023-05-20T03:20:25;100447.53;;;16.18;56.93
63439;BME280;49567;48.958;8.294;2023-05-20T03:22:53;100449.19;;;16.14;57.10
63439;BME280;49567;48.958;8.294;2023-05-20T03:25:18;100451.38;;;16.12;57.19
63439;BME280;49567;48.958;8.294;2023-05-20T03:27:44;100448.41;;;16.08;56.90
63439;BME280;49567;48.958;8.294;2023-05-20T03:30:09;100441.84;;;16.04;57.10
63439;BME280;49567;48.958;8.294;2023-05-20T03:32:34;100452.00;;;16.03;56.74
63439;BME280;49567;48.958;8.294;2023-05-20T03:35:00;100450.88;;;16.04;56.82
63439;BME280;49567;48.958;8.294;2023-05-20T03:37:26;100451.69;;;16.05;56.82
63439;BME280;49567;48.958;8.294;2023-05-20T03:39:51;100453.91;;;16.03;56.65
63439;BME280;49567;48.958;8.294;2023-05-20T03:42:16;100452.25;;;16.02;56.55
63439;BME280;49567;48.958;8.294;2023-05-20T03:44:41;100455.00;;;16.02;56.39
63439;BME280;49567;48.958;8.294;2023-05-20T03:47:07;100457.75;;;15.97;56.23
63439;BME280;49567;48.958;8.294;2023-05-20T03:49:32;100453.13;;;15.92;56.46
63439;BME280;49567;48.958;8.294;2023-05-20T03:51:57;100456.13;;;15.96;56.51
63439;BME280;49567;48.958;8.294;2023-05-20T03:54:22;100456.13;;;15.96;56.55
63439;BME280;49567;48.958;8.294;2023-05-20T03:56:48;100461.84;;;15.94;56.51
63439;BME280;49567;48.958;8.294;2023-05-20T03:59:13;100470.34;;;15.88;56.74
63439;BME280;49567;48.958;8.294;2023-05-20T04:01:38;100467.06;;;15.91;56.47
63439;BME280;49567;48.958;8.294;2023-05-20T04:04:04;100455.56;;;15.94;56.74
63439;BME280;49567;48.958;8.294;2023-05-20T04:06:29;100472.25;;;15.92;56.62
63439;BME280;49567;48.958;8.294;2023-05-20T04:08:55;100473.63;;;15.90;56.62
63439;BME280;49567;48.958;8.294;2023-05-20T04:11:21;100469.53;;;15.92;56.50
63439;BME280;49567;48.958;8.294;2023-05-20T04:13:46;100470.34;;;15.93;56.48
63439;BME280;49567;48.958;8.294;2023-05-20T04:16:12;100461.41;;;15.77;56.87
63439;BME280;49567;48.958;8.294;2023-05-20T04:18:37;100462.44;;;15.81;56.75
63439;BME280;49567;48.958;8.294;2023-05-20T04:21:03;100461.41;;;15.72;56.79
63439;BME280;49567;48.958;8.294;2023-05-20T04:23:28;100463.56;;;15.75;56.76
63439;BME280;49567;48.958;8.294;2023-05-20T04:25:54;100459.97;;;15.85;56.59
63439;BME280;49567;48.958;8.294;2023-05-20T04:28:19;100464.63;;;15.89;56.40
63439;BME280;49567;48.958;8.294;2023-05-20T04:30:48;100466.56;;;15.84;56.92
63439;BME280;49567;48.958;8.294;2023-05-20T04:33:14;100465.75;;;15.83;56.78
63439;BME280;49567;48.958;8.294;2023-05-20T04:35:40;100460.53;;;15.87;56.82
63439;BME280;49567;48.958;8.294;2023-05-20T04:38:05;100468.19;;;15.90;57.04
63439;BME280;49567;48.958;8.294;2023-05-20T04:40:31;100468.13;;;15.95;56.86
63439;BME280;49567;48.958;8.294;2023-05-20T04:42:58;100463.22;;;15.92;56.78
63439;BME280;49567;48.958;8.294;2023-05-20T04:45:24;100464.31;;;15.91;56.90
63439;BME280;49567;48.958;8.294;2023-05-20T04:47:49;100467.63;;;15.93;56.83
63439;BME280;49567;48.958;8.294;2023-05-20T04:50:17;100461.59;;;15.96;56.81
63439;BME280;49567;48.958;8.294;2023-05-20T04:52:42;100461.53;;;16.01;56.81
63439;BME280;49567;48.958;8.294;2023-05-20T04:55:09;100457.97;;;16.05;56.67
63439;BME280;49567;48.958;8.294;2023-05-20T04:57:35;100460.19;;;16.03;56.55
63439;BME280;49567;48.958;8.294;2023-05-20T05:00:03;100458.00;;;16.00;56.87
63439;BME280;49567;48.958;8.294;2023-05-20T05:02:31;100452.81;;;15.99;56.90
63439;BME280;49567;48.958;8.294;2023-05-20T05:04:56;100449.31;;;15.93;57.23
63439;BME280;49567;48.958;8.294;2023-05-20T05:07:21;100449.00;;;15.95;57.27
63439;BME280;49567;48.958;8.294;2023-05-20T05:09:47;100450.66;;;15.96;57.33
63439;BME280;49567;48.958;8.294;2023-05-20T05:12:12;100438.84;;;16.00;57.35
63439;BME280;49567;48.958;8.294;2023-05-20T05:14:37;100441.59;;;16.05;56.93
63439;BME280;49567;48.958;8.294;2023-05-20T05:17:03;100435.28;;;16.10;56.77
63439;BME280;49567;48.958;8.294;2023-05-20T05:19:28;100445.09;;;16.11;57.09
63439;BME280;49567;48.958;8.294;2023-05-20T05:21:53;100433.38;;;16.05;57.19
63439;BME280;49567;48.958;8.294;2023-05-20T05:24:19;100429.81;;;16.10;57.51
63439;BME280;49567;48.958;8.294;2023-05-20T05:26:44;100428.69;;;16.16;57.36
63439;BME280;49567;48.958;8.294;2023-05-20T05:29:09;100428.13;;;16.19;57.38
63439;BME280;49567;48.958;8.294;2023-05-20T05:31:35;100428.63;;;16.26;57.12
63439;BME280;49567;48.958;8.294;2023-05-20T05:34:00;100422.34;;;16.26;57.05
63439;BME280;49567;48.958;8.294;2023-05-20T05:36:25;100414.66;;;16.28;57.20
63439;BME280;49567;48.958;8.294;2023-05-20T05:38:50;100417.38;;;16.28;57.01
63439;BME280;49567;48.958;8.294;2023-05-20T05:41:16;100418.72;;;16.30;57.15
63439;BME280;49567;48.958;8.294;2023-05-20T05:43:41;100418.97;;;16.34;57.14
63439;BME280;49567;48.958;8.294;2023-05-20T05:46:06;100416.97;;;16.49;56.80
63439;BME280;49567;48.958;8.294;2023-05-20T05:48:33;100422.94;;;16.56;56.69
63439;BME280;49567;48.958;8.294;2023-05-20T05:50:58;100412.56;;;16.58;56.62
63439;BME280;49567;48.958;8.294;2023-05-20T05:53:24;100426.25;;;16.58;56.84
63439;BME280;49567;48.958;8.294;2023-05-20T05:55:49;100417.47;;;16.56;56.92
63439;BME280;49567;48.958;8.294;2023-05-20T05:58:14;100427.06;;;16.59;57.05
63439;BME280;49567;48.958;8.294;2023-05-20T06:00:39;100427.59;;;16.61;57.07
63439;BME280;49567;48.958;8.294;2023-05-20T06:03:05;100422.94;;;16.62;57.15
63439;BME280;49567;48.958;8.294;2023-05-20T06:05:31;100417.13;;;16.68;57.14
63439;BME280;49567;48.958;8.294;2023-05-20T06:07:56;100415.72;;;16.71;57.05
63439;BME280;49567;48.958;8.294;2023-05-20T06:10:22;100422.03;;;16.71;57.07
63439;BME280;49567;48.958;8.294;2023-05-20T06:12:47;100428.84;;;16.74;57.01
63439;BME280;49567;48.958;8.294;2023-05-20T06:15:13;100420.88;;;16.77;57.04
63439;BME280;49567;48.958;8.294;2023-05-20T06:17:38;100422.78;;;16.77;57.10
63439;BME280;49567;48.958;8.294;2023-05-20T06:20:04;100414.34;;;16.73;57.22
63439;BME280;49567;48.958;8.294;2023-05-20T06:22:29;100429.34;;;16.81;57.35
63439;BME280;49567;48.958;8.294;2023-05-20T06:24:55;100421.09;;;16.86;57.07
63439;BME280;49567;48.958;8.294;2023-05-20T06:27:24;100413.41;;;16.88;57.03
63439;BME280;49567;48.958;8.294;2023-05-20T06:29:49;100411.50;;;16.88;56.89
63439;BME280;49567;48.958;8.294;2023-05-20T06:32:14;100408.75;;;16.88;57.11
63439;BME280;49567;48.958;8.294;2023-05-20T06:34:40;100414.00;;;16.80;57.23
63439;BME280;49567;48.958;8.294;2023-05-20T06:37:05;100404.09;;;16.89;57.07
63439;BME280;49567;48.958;8.294;2023-05-20T06:39:30;100407.84;;;16.98;56.86
63439;BME280;49567;48.958;8.294;2023-05-20T06:41:55;100397.66;;;17.03;56.89
63439;BME280;49567;48.958;8.294;2023-05-20T06:44:21;100391.31;;;17.08;56.92
63439;BME280;49567;48.958;8.294;2023-05-20T06:46:46;100396.25;;;17.06;57.05
63439;BME280;49567;48.958;8.294;2023-05-20T06:49:11;100389.91;;;17.10;57.16
63439;BME280;49567;48.958;8.294;2023-05-20T06:51:37;100399.94;;;17.20;56.93
63439;BME280;49567;48.958;8.294;2023-05-20T06:54:02;100403.44;;;17.26;56.82
63439;BME280;49567;48.958;8.294;2023-05-20T06:56:28;100391.34;;;17.32;57.03
63439;BME280;49567;48.958;8.294;2023-05-20T06:58:53;100404.94;;;17.42;56.89
63439;BME280;49567;48.958;8.294;2023-05-20T07:01:19;100401.25;;;17.51;56.62
63439;BME280;49567;48.958;8.294;2023-05-20T07:03:44;100401.47;;;17.55;56.62
63439;BME280;49567;48.958;8.294;2023-05-20T07:06:10;100397.09;;;17.54;56.52
63439;BME280;49567;48.958;8.294;2023-05-20T07:08:35;100393.25;;;17.55;56.64
63439;BME280;49567;48.958;8.294;2023-05-20T07:11:00;100389.75;;;17.49;57.20
63439;BME280;49567;48.958;8.294;2023-05-20T07:13:25;100380.53;;;17.40;57.46
63439;BME280;49567;48.958;8.294;2023-05-20T07:15:51;100391.00;;;17.38;57.36
63439;BME280;49567;48.958;8.294;2023-05-20T07:18:16;100387.94;;;17.40;57.49
63439;BME280;49567;48.958;8.294;2023-05-20T07:20:43;100380.03;;;17.38;57.74
63439;BME280;49567;48.958;8.294;2023-05-20T07:23:09;100370.09;;;17.42;57.71
63439;BME280;49567;48.958;8.294;2023-05-20T07:25:34;100367.31;;;17.47;57.78
63439;BME280;49567;48.958;8.294;2023-05-20T07:27:59;100362.88;;;17.51;57.72
63439;BME280;49567;48.958;8.294;2023-05-20T07:30:28;100359.00;;;17.57;57.76
63439;BME280;49567;48.958;8.294;2023-05-20T07:32:56;100363.31;;;17.63;57.96
63439;BME280;49567;48.958;8.294;2023-05-20T07:35:22;100365.47;;;17.67;58.04
63439;BME280;49567;48.958;8.294;2023-05-20T07:37:48;100367.09;;;17.68;57.88
63439;BME280;49567;48.958;8.294;2023-05-20T07:40:13;100361.84;;;17.71;57.90
63439;BME280;49567;48.958;8.294;2023-05-20T07:42:39;100361.75;;;17.76;57.83
63439;BME280;49567;48.958;8.294;2023-05-20T07:45:05;100366.59;;;17.84;57.81
63439;BME280;49567;48.958;8.294;2023-05-20T07:47:31;100357.41;;;17.94;57.83
63439;BME280;49567;48.958;8.294;2023-05-20T07:49:57;100349.56;;;18.06;57.69
63439;BME280;49567;48.958;8.294;2023-05-20T07:52:22;100346.38;;;18.18;57.61
63439;BME280;49567;48.958;8.294;2023-05-20T07:54:47;100345.09;;;18.29;57.08
63439;BME280;49567;48.958;8.294;2023-05-20T07:57:12;100343.06;;;18.34;56.98
63439;BME280;49567;48.958;8.294;2023-05-20T07:59:38;100345.75;;;18.39;57.03
63439;BME280;49567;48.958;8.294;2023-05-20T08:02:04;100343.22;;;18.43;57.03
63439;BME280;49567;48.958;8.294;2023-05-20T08:04:29;100345.00;;;18.52;57.21
63439;BME280;49567;48.958;8.294;2023-05-20T08:06:54;100346.66;;;18.53;56.80
63439;BME280;49567;48.958;8.294;2023-05-20T08:09:20;100341.28;;;18.62;56.84
63439;BME280;49567;48.958;8.294;2023-05-20T08:11:45;100340.72;;;18.79;56.57
63439;BME280;49567;48.958;8.294;2023-05-20T08:14:11;100337.06;;;18.83;56.40
63439;BME280;49567;48.958;8.294;2023-05-20T08:16:36;100340.91;;;18.82;56.59
63439;BME280;49567;48.958;8.294;2023-05-20T08:19:02;100328.72;;;18.88;56.52
63439;BME280;49567;48.958;8.294;2023-05-20T08:21:27;100328.81;;;18.97;56.15
63439;BME280;49567;48.958;8.294;2023-05-20T08:23:53;100319.91;;;19.05;56.09
63439;BME280;49567;48.958;8.294;2023-05-20T08:26:18;100317.56;;;19.12;56.03
63439;BME280;49567;48.958;8.294;2023-05-20T08:28:47;100319.00;;;19.23;55.67
63439;BME280;49567;48.958;8.294;2023-05-20T08:31:13;100313.28;;;19.33;55.81
63439;BME280;49567;48.958;8.294;2023-05-20T08:33:38;100308.75;;;19.42;55.51
63439;BME280;49567;48.958;8.294;2023-05-20T08:36:03;100308.81;;;19.64;54.71
63439;BME280;49567;48.958;8.294;2023-05-20T08:38:29;100305.03;;;19.60;55.22
63439;BME280;49567;48.958;8.294;2023-05-20T08:40:55;100304.16;;;19.87;54.71
63439;BME280;49567;48.958;8.294;2023-05-20T08:43:21;100308.75;;;20.14;53.74
63439;BME280;49567;48.958;8.294;2023-05-20T08:45:47;100304.41;;;19.99;53.96
63439;BME280;49567;48.958;8.294;2023-05-20T08:48:15;100306.75;;;20.06;54.04
63439;BME280;49567;48.958;8.294;2023-05-20T08:50:42;100300.50;;;20.14;54.02
63439;BME280;49567;48.958;8.294;2023-05-20T08:53:08;100303.56;;;20.12;54.18
63439;BME280;49567;48.958;8.294;2023-05-20T08:55:44;100291.91;;;19.93;54.55
63439;BME280;49567;48.958;8.294;2023-05-20T08:58:11;100294.09;;;19.83;54.63
63439;BME280;49567;48.958;8.294;2023-05-20T09:00:36;100294.59;;;19.85;54.89
63439;BME280;49567;48.958;8.294;2023-05-20T09:03:02;100288.50;;;20.10;54.86
63439;BME280;49567;48.958;8.294;2023-05-20T09:05:28;100281.16;;;20.41;54.12
63439;BME280;49567;48.958;8.294;2023-05-20T09:08:10;100283.13;;;20.49;53.47
63439;BME280;49567;48.958;8.294;2023-05-20T09:10:37;100286.56;;;20.55;53.11
63439;BME280;49567;48.958;8.294;2023-05-20T09:13:04;100292.16;;;20.41;53.32
63439;BME280;49567;48.958;8.294;2023-05-20T09:15:30;100290.63;;;20.88;52.66
63439;BME280;49567;48.958;8.294;2023-05-20T09:17:59;100294.09;;;21.02;52.18
63439;BME280;49567;48.958;8.294;2023-05-20T09:20:25;100302.69;;;21.01;51.93
63439;BME280;49567;48.958;8.294;2023-05-20T09:22:51;100293.56;;;20.92;52.17
63439;BME280;49567;48.958;8.294;2023-05-20T09:25:20;100296.72;;;21.55;51.47
63439;BME280;49567;48.958;8.294;2023-05-20T09:27:49;100303.09;;;21.82;50.81
63439;BME280;49567;48.958;8.294;2023-05-20T09:30:18;100301.13;;;21.82;50.31
63439;BME280;49567;48.958;8.294;2023-05-20T09:32:43;100299.94;;;21.57;50.72
63439;BME280;49567;48.958;8.294;2023-05-20T09:35:12;100294.78;;;21.56;51.04
63439;BME280;49567;48.958;8.294;2023-05-20T09:37:41;100298.22;;;21.70;50.93
63439;BME280;49567;48.958;8.294;2023-05-20T09:40:07;100298.75;;;21.98;50.44
63439;BME280;49567;48.958;8.294;2023-05-20T09:42:49;100298.25;;;22.04;50.15
63439;BME280;49567;48.958;8.294;2023-05-20T09:45:15;100289.28;;;21.73;50.34
63439;BME280;49567;48.958;8.294;2023-05-20T09:47:42;100278.06;;;21.44;50.89
63439;BME280;49567;48.958;8.294;2023-05-20T09:50:08;100272.03;;;21.42;51.11
63439;BME280;49567;48.958;8.294;2023-05-20T09:52:40;100281.66;;;21.70;50.75
63439;BME280;49567;48.958;8.294;2023-05-20T09:55:07;100272.09;;;21.85;50.26
63439;BME280;49567;48.958;8.294;2023-05-20T09:57:35;100278.56;;;21.63;50.35
63439;BME280;49567;48.958;8.294;2023-05-20T10:00:02;100281.13;;;21.42;50.86
63439;BME280;49567;48.958;8.294;2023-05-20T10:02:29;100276.09;;;21.44;51.13
63439;BME280;49567;48.958;8.294;2023-05-20T10:04:55;100268.09;;;22.63;49.16
63439;BME280;49567;48.958;8.294;2023-05-20T10:13:39;100262.31;;;24.56;44.89
63439;BME280;49567;48.958;8.294;2023-05-20T10:16:10;100260.81;;;25.15;44.03
63439;BME280;49567;48.958;8.294;2023-05-20T10:19:03;100263.69;;;25.95;42.45
63439;BME280;49567;48.958;8.294;2023-05-20T10:21:32;100253.38;;;25.56;42.07
63439;BME280;49567;48.958;8.294;2023-05-20T10:24:05;100253.47;;;25.47;42.54
63439;BME280;49567;48.958;8.294;2023-05-20T10:26:40;100256.38;;;25.63;42.27
63439;BME280;49567;48.958;8.294;2023-05-20T10:29:18;100253.00;;;25.69;42.33
63439;BME280;49567;48.958;8.294;2023-05-20T10:31:48;100249.00;;;25.55;42.33
63439;BME280;49567;48.958;8.294;2023-05-20T10:34:15;100234.94;;;25.75;42.36
63439;BME280;49567;48.958;8.294;2023-05-20T10:36:56;100233.06;;;26.19;41.66
63439;BME280;49567;48.958;8.294;2023-05-20T10:39:27;100231.66;;;27.00;40.45
63439;BME280;49567;48.958;8.294;2023-05-20T10:41:53;100227.06;;;27.58;38.46
63439;BME280;49567;48.958;8.294;2023-05-20T10:44:45;100222.19;;;28.09;37.60
63439;BME280;49567;48.958;8.294;2023-05-20T10:47:11;100225.91;;;28.59;36.63
63439;BME280;49567;48.958;8.294;2023-05-20T10:49:43;100228.41;;;28.64;36.60
63439;BME280;49567;48.958;8.294;2023-05-20T10:52:10;100238.22;;;27.97;37.58
63439;BME280;49567;48.958;8.294;2023-05-20T10:54:41;100228.16;;;27.03;38.21
63439;BME280;49567;48.958;8.294;2023-05-20T10:57:08;100232.84;;;27.34;38.22
63439;BME280;49567;48.958;8.294;2023-05-20T10:59:35;100230.41;;;29.61;34.89
63439;BME280;49567;48.958;8.294;2023-05-20T11:02:01;100225.13;;;30.49;32.94
63439;BME280;49567;48.958;8.294;2023-05-20T11:04:28;100227.19;;;28.61;35.30
63439;BME280;49567;48.958;8.294;2023-05-20T11:06:53;100222.81;;;27.64;36.64
63439;BME280;49567;48.958;8.294;2023-05-20T11:09:19;100219.59;;;27.12;37.36
63439;BME280;49567;48.958;8.294;2023-05-20T11:11:49;100218.06;;;28.22;35.25
63439;BME280;49567;48.958;8.294;2023-05-20T11:14:15;100213.38;;;28.68;34.97
63439;BME280;49567;48.958;8.294;2023-05-20T11:16:42;100211.91;;;29.79;33.17
63439;BME280;49567;48.958;8.294;2023-05-20T11:19:13;100208.22;;;28.93;34.01
63439;BME280;49567;48.958;8.294;2023-05-20T11:21:45;100207.03;;;29.73;33.29
63439;BME280;49567;48.958;8.294;2023-05-20T11:24:11;100201.00;;;30.78;31.39
63439;BME280;49567;48.958;8.294;2023-05-20T11:26:37;100194.31;;;31.44;30.47
63439;BME280;49567;48.958;8.294;2023-05-20T11:29:03;100199.84;;;32.09;29.97
63439;BME280;49567;48.958;8.294;2023-05-20T11:31:29;100199.63;;;31.02;30.70
63439;BME280;49567;48.958;8.294;2023-05-20T11:33:57;100196.06;;;29.61;32.78
63439;BME280;49567;48.958;8.294;2023-05-20T11:36:25;100200.97;;;30.74;31.62
63439;BME280;49567;48.958;8.294;2023-05-20T11:38:53;100193.00;;;30.76;31.38
63439;BME280;49567;48.958;8.294;2023-05-20T11:41:23;100184.13;;;29.60;32.21
63439;BME280;49567;48.958;8.294;2023-05-20T11:43:55;100194.00;;;28.33;33.96
63439;BME280;49567;48.958;8.294;2023-05-20T11:46:20;100197.28;;;27.43;35.17
63439;BME280;49567;48.958;8.294;2023-05-20T11:48:53;100198.81;;;27.41;35.28
63439;BME280;49567;48.958;8.294;2023-05-20T11:51:28;100192.13;;;27.26;35.84
63439;BME280;49567;48.958;8.294;2023-05-20T11:54:05;100191.75;;;26.93;36.42
63439;BME280;49567;48.958;8.294;2023-05-20T11:56:32;100186.53;;;26.44;37.67
63439;BME280;49567;48.958;8.294;2023-05-20T11:58:59;100180.13;;;26.00;38.49
63439;BME280;49567;48.958;8.294;2023-05-20T12:01:25;100178.06;;;25.69;39.29
63439;BME280;49567;48.958;8.294;2023-05-20T12:03:52;100178.81;;;25.54;39.89
63439;BME280;49567;48.958;8.294;2023-05-20T12:06:18;100176.94;;;25.46;40.00
63439;BME280;49567;48.958;8.294;2023-05-20T12:08:43;100165.53;;;26.03;39.21
63439;BME280;49567;48.958;8.294;2023-05-20T12:11:09;100168.41;;;26.66;38.34
63439;BME280;49567;48.958;8.294;2023-05-20T12:13:34;100171.09;;;26.31;38.76
63439;BME280;49567;48.958;8.294;2023-05-20T12:16:00;100164.81;;;25.91;39.14
63439;BME280;49567;48.958;8.294;2023-05-20T12:18:25;100163.81;;;26.26;39.14
63439;BME280;49567;48.958;8.294;2023-05-20T12:20:50;100157.94;;;27.25;37.61
63439;BME280;49567;48.958;8.294;2023-05-20T12:23:16;100161.28;;;27.50;37.07
63439;BME280;49567;48.958;8.294;2023-05-20T12:25:41;100167.44;;;27.24;37.63
63439;BME280;49567;48.958;8.294;2023-05-20T12:28:06;100153.22;;;27.64;37.49
63439;BME280;49567;48.958;8.294;2023-05-20T12:30:32;100149.97;;;28.01;37.19
63439;BME280;49567;48.958;8.294;2023-05-20T12:33:01;100156.94;;;28.10;36.86
63439;BME280;49567;48.958;8.294;2023-05-20T12:35:37;100153.53;;;27.59;36.63
63439;BME280;49567;48.958;8.294;2023-05-20T12:38:03;100157.91;;;26.91;37.32
63439;BME280;49567;48.958;8.294;2023-05-20T12:40:29;100144.28;;;26.39;38.56
63439;BME280;49567;48.958;8.294;2023-05-20T12:42:54;100158.56;;;26.09;39.07
63439;BME280;49567;48.958;8.294;2023-05-20T12:45:20;100154.75;;;25.86;39.83
63439;BME280;49567;48.958;8.294;2023-05-20T12:47:45;100149.16;;;25.70;39.94
63439;BME280;49567;48.958;8.294;2023-05-20T12:50:10;100153.09;;;25.69;40.21
63439;BME280;49567;48.958;8.294;2023-05-20T12:52:36;100149.66;;;25.88;40.14